Time;durP1;ratioP1;P1;durP2;ratioP2;P2;SDS_P1;SDS_P2;PMS_P1;PMS_P2;Temp;Humidity;BMP_temperature;BMP_pressure;BME280_temperature;BME280_humidity;BME280_pressure;Samples;Min_cycle;Max_cycle;Signal;HPM_P1;HPM_P2
2022/07/01 00:01:27;;;;;;;3.63;0.60;;;15.70;99.90;;;;;;4167168;28;20045;-92
2022/07/01 00:03:36;;;;;;;3.08;0.90;;;15.70;99.90;;;;;;4167139;28;20049;-91
2022/07/01 00:05:37;;;;;;;7.13;0.77;;;15.80;99.90;;;;;;4167001;28;20045;-91
2022/07/01 00:07:38;;;;;;;2.90;0.60;;;15.70;99.90;;;;;;4166714;28;20056;-91
2022/07/01 00:09:46;;;;;;;5.45;0.57;;;15.80;99.90;;;;;;4166604;28;20041;-91
2022/07/01 00:11:47;;;;;;;3.95;0.70;;;15.70;99.90;;;;;;4166872;28;20496;-92
2022/07/01 00:13:48;;;;;;;2.15;0.60;;;15.70;99.90;;;;;;4166561;28;20046;-91
2022/07/01 00:15:59;;;;;;;7.97;1.15;;;15.80;99.90;;;;;;4166972;28;20394;-92
2022/07/01 00:18:00;;;;;;;2.65;0.60;;;16.00;99.90;;;;;;4166599;28;20042;-91
2022/07/01 00:20:03;;;;;;;1.75;0.60;;;15.90;99.90;;;;;;4166931;28;20419;-92
2022/07/01 00:22:07;;;;;;;1.20;0.68;;;15.90;99.90;;;;;;4167229;28;20132;-92
2022/07/01 00:24:09;;;;;;;3.20;0.60;;;15.90;99.90;;;;;;4166937;28;20072;-92
2022/07/01 00:26:18;;;;;;;4.30;1.65;;;15.90;99.90;;;;;;4166461;28;20049;-92
2022/07/01 00:28:20;;;;;;;3.70;0.60;;;15.90;99.90;;;;;;4167009;28;20123;-92
2022/07/01 00:30:23;;;;;;;5.78;0.80;;;15.90;99.90;;;;;;4166331;28;20053;-92
2022/07/01 00:32:25;;;;;;;4.38;1.30;;;15.90;99.90;;;;;;4166714;28;20045;-91
2022/07/01 00:34:34;;;;;;;3.15;0.60;;;15.90;99.90;;;;;;4166789;28;20398;-92
2022/07/01 00:36:35;;;;;;;4.75;1.13;;;15.80;99.90;;;;;;4178415;28;20576;-91
2022/07/01 00:38:42;;;;;;;3.58;0.65;;;15.80;99.90;;;;;;4166223;28;20107;-91
2022/07/01 00:40:43;;;;;;;3.28;0.88;;;15.70;99.90;;;;;;4166837;28;20187;-90
2022/07/01 00:42:52;;;;;;;1.55;0.80;;;15.60;99.90;;;;;;4165888;28;20088;-92
2022/07/01 00:44:52;;;;;;;1.02;0.50;;;15.60;99.90;;;;;;4166338;28;20398;-93
2022/07/01 00:46:56;;;;;;;1.38;0.95;;;15.60;99.90;;;;;;4166627;28;20172;-92
2022/07/01 00:49:00;;;;;;;3.15;0.75;;;15.50;99.90;;;;;;4166302;28;20071;-91
2022/07/01 00:51:00;;;;;;;1.15;0.68;;;15.50;99.90;;;;;;4166483;28;20045;-91
2022/07/01 00:53:05;;;;;;;4.35;0.80;;;15.50;99.90;;;;;;4165898;28;20051;-92
2022/07/01 00:55:09;;;;;;;2.90;0.73;;;15.50;99.90;;;;;;4166759;28;20041;-92
2022/07/01 00:57:15;;;;;;;5.40;0.70;;;15.50;99.90;;;;;;4166691;28;20045;-91
2022/07/01 00:59:24;;;;;;;7.72;0.75;;;15.60;99.90;;;;;;4166623;28;20128;-91
2022/07/01 01:01:34;;;;;;;3.30;0.70;;;15.60;99.90;;;;;;4183791;28;20048;-91
2022/07/01 01:03:36;;;;;;;1.95;0.50;;;15.60;99.90;;;;;;4166084;28;20101;-92
2022/07/01 01:05:41;;;;;;;2.13;0.60;;;15.60;99.90;;;;;;4166640;28;20132;-91
2022/07/01 01:08:01;;;;;;;3.95;0.80;;;15.60;99.90;;;;;;4166321;28;20041;-92
2022/07/01 01:10:05;;;;;;;4.10;1.20;;;15.60;99.90;;;;;;4166643;28;20398;-92
2022/07/01 01:12:11;;;;;;;6.13;0.90;;;15.60;99.90;;;;;;4166406;28;20046;-92
2022/07/01 01:14:14;;;;;;;1.80;0.57;;;15.50;99.90;;;;;;4166001;28;20076;-91
2022/07/01 01:16:25;;;;;;;2.15;0.40;;;15.50;99.90;;;;;;4165927;28;20067;-93
2022/07/01 01:18:26;;;;;;;0.75;0.47;;;15.50;99.90;;;;;;4166316;28;20045;-91
2022/07/01 01:20:36;;;;;;;1.90;0.50;;;15.40;99.90;;;;;;4166405;28;20068;-91
2022/07/01 01:22:38;;;;;;;2.50;1.30;;;15.40;99.90;;;;;;4166560;28;20041;-91
2022/07/01 01:24:47;;;;;;;2.25;0.80;;;15.40;99.90;;;;;;4166846;28;20088;-92
2022/07/01 01:26:59;;;;;;;1.98;1.45;;;15.40;99.90;;;;;;4166249;28;20045;-92
2022/07/01 01:29:03;;;;;;;2.47;0.85;;;15.40;99.90;;;;;;4182841;28;20589;-92
2022/07/01 01:31:04;;;;;;;2.22;0.98;;;15.40;99.90;;;;;;4182948;28;20052;-92
2022/07/01 01:33:07;;;;;;;1.85;0.90;;;15.30;99.90;;;;;;4165305;28;20038;-92
2022/07/01 01:35:09;;;;;;;1.67;1.00;;;15.40;99.90;;;;;;4165515;28;20053;-92
2022/07/01 01:37:18;;;;;;;3.88;1.00;;;15.40;99.90;;;;;;4165045;28;20099;-92
2022/07/01 01:39:28;;;;;;;4.05;1.20;;;15.40;99.90;;;;;;4166236;28;20587;-92
2022/07/01 01:41:36;;;;;;;5.35;1.52;;;15.40;99.90;;;;;;4166618;28;20052;-92
2022/07/01 01:43:37;;;;;;;1.65;0.98;;;15.40;99.90;;;;;;4182702;28;20045;-92
2022/07/01 01:45:40;;;;;;;5.43;1.10;;;15.40;99.90;;;;;;4165368;28;20144;-92
2022/07/01 01:47:43;;;;;;;2.45;1.10;;;15.40;99.90;;;;;;4166725;28;20057;-92
2022/07/01 01:49:46;;;;;;;3.05;1.15;;;15.20;99.90;;;;;;4168939;28;20379;-90
2022/07/01 01:51:57;;;;;;;9.88;1.00;;;15.30;99.90;;;;;;4168237;28;20048;-92
2022/07/01 01:54:00;;;;;;;2.63;1.00;;;15.40;99.90;;;;;;4169179;28;20093;-91
2022/07/01 01:56:06;;;;;;;1.33;0.90;;;15.40;99.90;;;;;;4168792;28;20042;-92
2022/07/01 01:58:08;;;;;;;1.60;1.00;;;15.30;99.90;;;;;;4169827;28;20095;-92
2022/07/01 02:00:19;;;;;;;5.53;1.05;;;15.40;99.90;;;;;;4169162;28;20046;-92
2022/07/01 02:02:22;;;;;;;3.67;1.50;;;15.40;99.90;;;;;;4169335;28;20041;-92
2022/07/01 02:04:25;;;;;;;2.28;1.20;;;15.30;99.90;;;;;;4185231;28;20522;-92
2022/07/01 02:06:29;;;;;;;2.67;1.42;;;15.40;99.90;;;;;;4169082;28;20045;-92
2022/07/01 02:08:32;;;;;;;1.15;0.75;;;15.30;99.90;;;;;;4168832;28;20048;-92
2022/07/01 02:10:39;;;;;;;2.83;1.20;;;15.30;99.90;;;;;;4168505;28;20049;-91
2022/07/01 02:12:40;;;;;;;2.85;1.00;;;15.20;99.90;;;;;;4168430;28;20042;-92
2022/07/01 02:14:41;;;;;;;2.67;1.10;;;15.30;99.90;;;;;;4180644;28;20079;-91
2022/07/01 02:16:47;;;;;;;2.80;1.08;;;15.30;99.90;;;;;;4182868;28;20049;-91
2022/07/01 02:18:50;;;;;;;3.85;1.10;;;15.30;99.90;;;;;;4185403;28;20049;-92
2022/07/01 02:20:52;;;;;;;1.02;0.85;;;15.20;99.90;;;;;;4168472;28;20045;-92
2022/07/01 02:22:53;;;;;;;1.08;0.88;;;15.30;99.90;;;;;;4168167;28;20045;-92
2022/07/01 02:24:55;;;;;;;3.45;1.00;;;15.30;99.90;;;;;;4185460;28;20048;-91
2022/07/01 02:26:55;;;;;;;1.80;1.23;;;15.30;99.90;;;;;;4168683;28;20493;-92
2022/07/01 02:28:57;;;;;;;2.83;1.25;;;15.30;99.90;;;;;;4168735;28;20120;-92
2022/07/01 02:31:06;;;;;;;1.30;1.00;;;15.20;99.90;;;;;;4168001;28;20127;-92
2022/07/01 02:33:08;;;;;;;1.42;1.20;;;15.30;99.90;;;;;;4179595;28;20065;-91
2022/07/01 02:35:15;;;;;;;1.17;0.90;;;15.30;99.90;;;;;;4172530;28;20060;-92
2022/07/01 02:37:22;;;;;;;3.33;1.10;;;15.20;99.90;;;;;;4169071;28;20048;-96
2022/07/01 02:39:27;;;;;;;1.45;1.00;;;15.20;99.90;;;;;;4173851;28;20045;-95
2022/07/01 02:41:28;;;;;;;1.13;0.88;;;15.20;99.90;;;;;;4172402;28;20045;-95
2022/07/01 02:43:29;;;;;;;2.05;0.98;;;15.20;99.90;;;;;;4170464;28;20099;-96
2022/07/01 02:45:36;;;;;;;1.48;1.13;;;15.20;99.90;;;;;;4169923;28;20053;-95
2022/07/01 02:47:39;;;;;;;1.40;1.13;;;15.20;99.90;;;;;;4169897;28;20045;-96
2022/07/01 02:49:42;;;;;;;2.83;0.93;;;15.20;99.90;;;;;;4170902;28;20439;-96
2022/07/01 02:51:52;;;;;;;1.77;0.98;;;15.10;99.90;;;;;;4170060;28;20100;-95
2022/07/01 02:54:00;;;;;;;3.33;1.00;;;15.10;99.90;;;;;;4169704;28;20052;-95
2022/07/01 02:56:07;;;;;;;1.50;1.10;;;15.10;99.90;;;;;;4169438;28;20386;-95
2022/07/01 02:58:11;;;;;;;2.13;1.08;;;15.10;99.90;;;;;;4170357;28;20049;-94
2022/07/01 03:00:28;;;;;;;1.10;0.95;;;15.10;99.90;;;;;;4169583;28;20077;-95
2022/07/01 03:02:38;;;;;;;2.58;1.10;;;15.10;99.90;;;;;;4169744;28;20136;-94
2022/07/01 03:04:39;;;;;;;4.07;1.00;;;15.10;99.90;;;;;;4168983;28;20077;-94
2022/07/01 03:06:47;;;;;;;1.88;1.02;;;15.10;99.90;;;;;;4169790;28;20046;-95
2022/07/01 03:08:58;;;;;;;4.47;1.27;;;15.00;99.90;;;;;;4170219;28;20052;-94
2022/07/01 03:11:06;;;;;;;1.52;1.05;;;15.10;99.90;;;;;;4169504;28;20049;-95
2022/07/01 03:13:07;;;;;;;2.38;1.40;;;15.00;99.90;;;;;;4169416;28;20046;-94
2022/07/01 03:15:15;;;;;;;5.00;1.33;;;15.00;99.90;;;;;;4168895;28;20056;-95
2022/07/01 03:17:28;;;;;;;2.28;1.40;;;15.00;99.90;;;;;;4169409;28;20077;-94
2022/07/01 03:19:29;;;;;;;2.15;1.80;;;15.00;99.90;;;;;;4168820;28;20100;-94
2022/07/01 03:21:32;;;;;;;2.95;1.40;;;15.00;99.90;;;;;;4168728;28;20534;-95
2022/07/01 03:23:35;;;;;;;3.15;1.13;;;15.00;99.90;;;;;;4168689;28;20057;-93
2022/07/01 03:25:36;;;;;;;4.93;1.25;;;15.00;99.90;;;;;;4168467;28;20440;-94
2022/07/01 03:27:37;;;;;;;4.88;1.10;;;14.90;99.90;;;;;;4168628;28;20072;-93
2022/07/01 03:29:40;;;;;;;4.25;1.65;;;14.80;99.90;;;;;;4185764;28;20049;-95
2022/07/01 03:31:40;;;;;;;3.95;1.30;;;14.90;99.90;;;;;;4185796;28;20054;-93
2022/07/01 03:33:47;;;;;;;2.75;1.17;;;14.90;99.90;;;;;;4168892;28;20069;-95
2022/07/01 03:35:48;;;;;;;1.60;1.15;;;14.50;99.90;;;;;;4168761;28;20494;-94
2022/07/01 03:37:50;;;;;;;2.00;1.40;;;14.90;99.90;;;;;;4168227;28;20183;-94
2022/07/01 03:39:53;;;;;;;2.33;1.30;;;14.90;99.90;;;;;;4168558;28;20045;-95
2022/07/01 03:41:59;;;;;;;3.58;1.35;;;14.50;99.90;;;;;;4169361;28;20049;-96
2022/07/01 03:44:07;;;;;;;2.45;1.30;;;14.90;99.90;;;;;;4171285;28;20052;-96
2022/07/01 03:46:35;;;;;;;3.50;1.42;;;14.80;99.90;;;;;;4174290;28;20029;-96
2022/07/01 03:48:46;;;;;;;2.03;1.20;;;14.80;99.90;;;;;;4174490;28;20049;-96
2022/07/01 03:51:21;;;;;;;2.70;1.50;;;14.80;99.90;;;;;;4171299;28;20371;-96
2022/07/01 03:56:09;;;;;;;4.18;2.20;;;14.90;99.90;;;;;;4203696;28;20045;-96
2022/07/01 03:58:17;;;;;;;3.30;1.95;;;14.90;99.90;;;;;;4189187;28;20045;-96
2022/07/01 04:00:41;;;;;;;7.53;1.45;;;14.90;99.90;;;;;;4188221;28;20108;-96
2022/07/01 04:02:48;;;;;;;2.95;1.58;;;14.90;99.90;;;;;;4188280;28;20514;-96
2022/07/01 04:05:00;;;;;;;3.05;1.40;;;15.00;99.90;;;;;;4180795;28;20041;-96
2022/07/01 04:07:25;;;;;;;4.65;1.52;;;15.00;99.90;;;;;;4172460;28;20152;-96
2022/07/01 04:09:43;;;;;;;5.22;1.80;;;15.00;99.90;;;;;;4172127;28;20045;-96
2022/07/01 04:11:49;;;;;;;4.35;1.40;;;15.00;99.90;;;;;;4170734;28;20085;-96
2022/07/01 04:14:10;;;;;;;3.60;1.75;;;15.00;99.90;;;;;;4172873;28;20046;-96
2022/07/01 04:16:21;;;;;;;3.67;1.85;;;15.00;99.90;;;;;;4171471;28;20038;-96
2022/07/01 04:18:24;;;;;;;3.90;1.83;;;15.10;99.90;;;;;;4172726;28;20050;-96
2022/07/01 04:20:35;;;;;;;5.65;1.85;;;15.00;99.90;;;;;;4173297;28;20045;-96
2022/07/01 04:22:47;;;;;;;4.95;1.33;;;15.00;99.90;;;;;;4173574;28;20104;-96
2022/07/01 04:24:53;;;;;;;4.28;2.20;;;15.00;99.90;;;;;;4175335;28;20045;-96
2022/07/01 04:26:56;;;;;;;2.55;1.70;;;15.10;99.90;;;;;;4175478;28;20045;-96
2022/07/01 04:29:07;;;;;;;6.05;2.17;;;15.00;99.90;;;;;;4172412;28;20053;-96
2022/07/01 04:31:14;;;;;;;3.28;1.70;;;15.00;99.90;;;;;;4169574;28;20049;-96
2022/07/01 04:33:15;;;;;;;3.47;1.98;;;15.00;99.90;;;;;;4171994;28;20128;-96
2022/07/01 04:35:18;;;;;;;5.00;1.77;;;15.10;99.90;;;;;;4172358;28;20083;-96
2022/07/01 04:37:20;;;;;;;3.92;1.95;;;15.10;99.90;;;;;;4172719;28;20049;-96
2022/07/01 04:39:37;;;;;;;5.85;1.80;;;15.30;99.90;;;;;;4172704;28;20049;-96
2022/07/01 04:42:01;;;;;;;4.60;2.20;;;14.80;99.90;;;;;;4172323;28;20134;-96
2022/07/01 04:44:02;;;;;;;6.45;1.95;;;14.90;99.90;;;;;;4172072;28;20060;-96
2022/07/01 04:46:10;;;;;;;7.05;2.00;;;15.10;99.90;;;;;;4172129;28;20045;-96
2022/07/01 04:48:33;;;;;;;4.85;2.67;;;15.00;99.90;;;;;;4173064;28;20061;-96
2022/07/01 04:50:40;;;;;;;3.35;2.30;;;15.00;99.90;;;;;;4173492;28;20550;-96
2022/07/01 04:52:46;;;;;;;4.47;2.10;;;15.00;99.90;;;;;;4172399;28;20053;-96
2022/07/01 04:55:06;;;;;;;4.88;2.40;;;15.10;99.90;;;;;;4176037;28;20573;-96
2022/07/01 04:57:29;;;;;;;6.03;2.80;;;15.10;99.90;;;;;;4184215;28;20117;-95
2022/07/01 04:59:38;;;;;;;3.45;2.28;;;15.00;99.90;;;;;;4184748;28;20041;-95
2022/07/01 05:01:49;;;;;;;2.92;2.08;;;15.10;99.90;;;;;;4175827;28;20045;-96
2022/07/01 05:03:52;;;;;;;3.28;1.90;;;15.10;99.90;;;;;;4172466;28;20041;-96
2022/07/01 05:05:55;;;;;;;3.72;2.38;;;15.10;99.90;;;;;;4170101;28;20265;-96
2022/07/01 05:08:12;;;;;;;4.68;2.05;;;15.00;99.90;;;;;;4168564;28;20128;-96
2022/07/01 05:10:23;;;;;;;5.22;2.50;;;14.90;99.90;;;;;;4168573;28;20041;-96
2022/07/01 05:13:18;;;;;;;8.27;2.92;;;15.00;99.90;;;;;;4170621;28;20129;-96
2022/07/01 05:15:27;;;;;;;7.93;3.33;;;14.80;99.90;;;;;;4172081;28;20140;-96
2022/07/01 05:22:53;;;;;;;5.57;2.72;;;15.00;99.90;;;;;;4188621;28;20340;-96
2022/07/01 05:25:29;;;;;;;9.38;3.67;;;15.00;99.90;;;;;;4173432;28;20509;-96
2022/07/01 05:27:35;;;;;;;4.53;2.83;;;14.80;99.90;;;;;;4172993;28;20505;-96
2022/07/01 05:30:00;;;;;;;8.27;2.85;;;15.10;99.90;;;;;;4172206;28;20045;-96
2022/07/01 05:32:20;;;;;;;7.03;3.35;;;15.10;99.90;;;;;;4171585;28;20045;-96
2022/07/01 05:34:27;;;;;;;7.20;3.97;;;15.10;99.90;;;;;;4171937;28;20143;-96
2022/07/01 05:39:27;;;;;;;8.93;3.97;;;15.10;99.90;;;;;;4191102;28;20059;-96
2022/07/01 05:41:28;;;;;;;7.70;4.03;;;15.30;99.90;;;;;;4172649;28;20429;-96
2022/07/01 05:43:45;;;;;;;8.95;4.22;;;15.10;99.90;;;;;;4170913;28;20052;-96
2022/07/01 05:46:12;;;;;;;9.07;4.55;;;15.50;99.90;;;;;;4171458;28;20052;-96
2022/07/01 05:48:22;;;;;;;10.20;5.60;;;15.20;99.90;;;;;;4178192;28;20197;-94
2022/07/01 05:50:34;;;;;;;9.40;5.07;;;15.30;99.90;;;;;;4178652;28;20045;-95
2022/07/01 05:52:36;;;;;;;15.63;5.07;;;15.30;99.90;;;;;;4173162;28;20037;-96
2022/07/01 05:54:55;;;;;;;9.00;5.10;;;15.30;99.90;;;;;;4155787;28;20045;-93
2022/07/01 06:00:13;;;;;;;14.25;6.32;;;15.40;99.90;;;;;;4169441;28;20064;-90
2022/07/01 06:02:20;;;;;;;12.85;6.63;;;15.40;99.90;;;;;;4168886;28;20033;-93
2022/07/01 06:04:34;;;;;;;11.00;6.70;;;15.50;99.90;;;;;;4170459;28;20108;-93
2022/07/01 06:06:34;;;;;;;13.52;6.72;;;15.50;99.90;;;;;;4168802;28;20397;-92
2022/07/01 06:08:35;;;;;;;12.63;6.80;;;15.50;99.90;;;;;;4193936;28;20045;-90
2022/07/01 06:10:37;;;;;;;13.10;7.35;;;15.50;99.90;;;;;;4183901;28;20400;-91
2022/07/01 06:12:41;;;;;;;13.18;7.07;;;15.50;99.90;;;;;;4183798;28;20532;-93
2022/07/01 06:14:43;;;;;;;13.18;7.32;;;15.50;99.90;;;;;;4169596;28;20053;-92
2022/07/01 06:16:45;;;;;;;13.68;7.38;;;15.60;99.90;;;;;;4168976;28;20046;-92
2022/07/01 06:19:21;;;;;;;16.48;7.78;;;15.70;99.90;;;;;;4168112;28;20132;-94
2022/07/01 06:21:23;;;;;;;15.00;7.63;;;15.80;99.90;;;;;;4168655;28;20049;-92
2022/07/01 06:23:25;;;;;;;17.25;7.72;;;15.80;99.90;;;;;;4168128;28;20563;-92
2022/07/01 06:25:37;;;;;;;17.55;7.85;;;15.80;99.90;;;;;;4165360;28;20486;-92
2022/07/01 06:27:43;;;;;;;14.57;7.20;;;15.80;99.90;;;;;;4168236;28;20053;-92
2022/07/01 06:29:45;;;;;;;11.35;6.88;;;15.80;99.90;;;;;;4156390;28;20609;-92
2022/07/01 06:31:46;;;;;;;13.95;6.70;;;15.80;99.90;;;;;;4167431;28;20056;-93
2022/07/01 06:33:47;;;;;;;16.30;7.53;;;15.70;99.90;;;;;;4168684;28;20417;-93
2022/07/01 06:35:52;;;;;;;12.00;6.97;;;15.80;99.90;;;;;;4151174;28;20430;-91
2022/07/01 06:37:54;;;;;;;17.08;7.07;;;15.80;99.90;;;;;;4151804;28;20054;-90
2022/07/01 06:39:55;;;;;;;16.50;8.10;;;15.90;99.90;;;;;;4152121;28;20613;-90
2022/07/01 06:41:57;;;;;;;14.77;7.10;;;15.90;99.90;;;;;;4152142;28;20072;-90
2022/07/01 06:44:00;;;;;;;11.98;6.68;;;15.90;99.90;;;;;;4182815;28;20052;-90
2022/07/01 06:46:06;;;;;;;12.57;8.00;;;15.90;99.90;;;;;;4184729;28;20471;-90
2022/07/01 06:48:14;;;;;;;12.88;7.03;;;16.00;99.90;;;;;;4184121;28;20095;-90
2022/07/01 06:50:19;;;;;;;12.90;6.68;;;16.00;99.90;;;;;;4183749;28;20040;-90
2022/07/01 06:52:20;;;;;;;14.30;8.15;;;16.00;99.90;;;;;;4170617;28;20053;-89
2022/07/01 06:54:31;;;;;;;12.50;7.32;;;16.10;99.90;;;;;;4162654;28;20049;-91
2022/07/01 06:56:36;;;;;;;16.58;8.57;;;16.10;99.90;;;;;;4168504;28;20045;-91
2022/07/01 06:58:44;;;;;;;13.30;6.32;;;16.10;99.90;;;;;;4151379;28;20084;-91
2022/07/01 07:00:46;;;;;;;13.13;7.15;;;16.20;99.90;;;;;;4153117;28;20081;-90
2022/07/01 07:02:46;;;;;;;12.75;5.80;;;16.30;99.90;;;;;;4167731;28;20481;-89
2022/07/01 07:04:47;;;;;;;14.45;6.90;;;16.30;99.90;;;;;;4169105;28;20053;-86
2022/07/01 07:07:26;;;;;;;14.07;7.57;;;16.30;99.90;;;;;;4185380;28;20098;-91
2022/07/01 07:09:29;;;;;;;;;;;16.30;99.90;;;;;;4152395;28;20045;-94
2022/07/01 07:11:35;;;;;;;13.23;6.75;;;16.30;99.90;;;;;;4168056;28;19925;-93
2022/07/01 07:13:40;;;;;;;17.73;7.10;;;16.30;99.90;;;;;;4164943;28;20048;-94
2022/07/01 07:15:41;;;;;;;18.85;8.32;;;16.40;99.90;;;;;;4150691;28;20129;-93
2022/07/01 07:17:49;;;;;;;13.25;7.55;;;16.40;99.90;;;;;;4166485;28;20095;-94
2022/07/01 07:19:51;;;;;;;17.67;7.85;;;16.40;99.90;;;;;;4150418;28;20050;-92
2022/07/01 07:21:52;;;;;;;13.60;7.38;;;16.40;99.90;;;;;;4165921;28;20045;-88
2022/07/01 07:23:53;;;;;;;15.27;7.00;;;16.50;99.90;;;;;;4149567;28;20054;-88
2022/07/01 07:25:53;;;;;;;17.13;8.48;;;16.50;99.90;;;;;;4165681;28;20048;-86
2022/07/01 07:27:54;;;;;;;25.27;8.48;;;16.50;99.90;;;;;;4165142;28;20490;-85
2022/07/01 07:29:55;;;;;;;16.10;8.32;;;16.40;99.90;;;;;;4148912;28;20056;-86
2022/07/01 07:31:57;;;;;;;12.95;7.63;;;16.50;99.90;;;;;;4164755;28;20045;-86
2022/07/01 07:33:58;;;;;;;17.02;8.75;;;16.50;99.90;;;;;;4148792;28;20046;-86
2022/07/01 07:35:59;;;;;;;13.15;7.90;;;16.50;99.90;;;;;;4165775;28;20057;-86
2022/07/01 07:38:00;;;;;;;16.58;8.70;;;16.50;99.90;;;;;;4148004;28;20052;-85
2022/07/01 07:40:03;;;;;;;14.30;7.82;;;16.50;99.90;;;;;;4148389;28;20077;-85
2022/07/01 07:42:05;;;;;;;18.95;9.18;;;16.60;99.90;;;;;;4148576;28;20046;-86
2022/07/01 07:44:06;;;;;;;18.02;9.07;;;16.60;99.90;;;;;;4164891;28;20112;-86
2022/07/01 07:46:06;;;;;;;18.02;7.97;;;16.70;99.90;;;;;;4165257;28;20119;-85
2022/07/01 07:48:09;;;;;;;12.30;8.40;;;16.70;99.90;;;;;;4165389;28;20045;-85
2022/07/01 07:50:10;;;;;;;14.48;8.35;;;16.70;99.90;;;;;;4149570;28;20037;-85
2022/07/01 07:52:11;;;;;;;17.48;8.98;;;16.70;99.90;;;;;;4180954;28;20052;-87
2022/07/01 07:54:12;;;;;;;16.13;8.43;;;16.60;99.90;;;;;;4165164;28;20044;-87
2022/07/01 07:56:13;;;;;;;14.88;9.27;;;16.70;99.90;;;;;;4166150;28;20116;-87
2022/07/01 07:58:13;;;;;;;17.75;9.55;;;16.60;99.90;;;;;;4166935;28;20053;-87
2022/07/01 08:00:14;;;;;;;19.55;9.25;;;16.70;99.90;;;;;;4165128;28;20060;-87
2022/07/01 08:02:15;;;;;;;17.80;8.07;;;16.70;99.90;;;;;;4165115;28;20041;-87
2022/07/01 08:04:16;;;;;;;13.57;8.02;;;16.70;99.90;;;;;;4166943;28;20520;-87
2022/07/01 08:06:17;;;;;;;15.15;8.38;;;16.70;99.90;;;;;;4165482;28;20437;-85
2022/07/01 08:08:18;;;;;;;18.08;9.82;;;16.70;99.90;;;;;;4167058;28;20550;-85
2022/07/01 08:10:19;;;;;;;15.13;8.02;;;16.70;99.90;;;;;;4164648;28;20053;-85
2022/07/01 08:12:21;;;;;;;17.52;8.18;;;16.70;99.90;;;;;;4165670;28;20107;-84
2022/07/01 08:14:22;;;;;;;15.02;8.73;;;16.80;99.90;;;;;;4166450;28;20069;-85
2022/07/01 08:16:23;;;;;;;14.27;8.63;;;17.00;99.90;;;;;;4148874;28;20125;-85
2022/07/01 08:18:24;;;;;;;11.90;7.60;;;17.10;99.90;;;;;;4174139;28;20045;-84
2022/07/01 08:20:25;;;;;;;14.02;7.68;;;17.20;99.90;;;;;;4181789;28;20493;-85
2022/07/01 08:22:25;;;;;;;13.10;7.80;;;17.20;99.90;;;;;;4182121;28;20053;-85
2022/07/01 08:24:29;;;;;;;13.95;7.75;;;17.30;99.90;;;;;;4165016;28;20065;-86
2022/07/01 08:26:31;;;;;;;11.95;6.57;;;17.20;99.90;;;;;;4181668;28;20071;-85
2022/07/01 08:28:32;;;;;;;13.40;6.75;;;17.20;99.90;;;;;;4182408;28;20037;-86
2022/07/01 08:30:33;;;;;;;13.45;6.57;;;17.30;99.90;;;;;;4181067;28;20098;-85
2022/07/01 08:32:33;;;;;;;8.43;5.95;;;17.30;99.90;;;;;;4181292;28;20049;-86
2022/07/01 08:34:35;;;;;;;13.02;6.57;;;17.40;99.90;;;;;;4181773;28;20045;-86
2022/07/01 08:36:36;;;;;;;13.70;6.65;;;17.40;99.90;;;;;;4181647;28;20451;-86
2022/07/01 08:38:37;;;;;;;12.65;6.75;;;17.40;99.90;;;;;;4181759;28;20045;-88
2022/07/01 08:40:38;;;;;;;12.90;7.07;;;17.50;99.90;;;;;;4152090;28;20491;-88
2022/07/01 08:42:39;;;;;;;13.43;6.50;;;17.50;99.90;;;;;;4165678;28;20053;-88
2022/07/01 08:44:39;;;;;;;10.57;6.03;;;17.60;99.90;;;;;;4163789;28;20128;-89
2022/07/01 08:46:41;;;;;;;8.82;6.38;;;17.70;99.90;;;;;;4164620;28;20084;-91
2022/07/01 08:48:45;;;;;;;11.93;5.65;;;17.70;99.90;;;;;;4148299;28;20045;-88
2022/07/01 08:50:48;;;;;;;11.63;5.40;;;17.80;99.90;;;;;;4166356;28;20049;-90
2022/07/01 08:52:50;;;;;;;9.60;5.20;;;17.90;99.90;;;;;;4166524;28;20045;-90
2022/07/01 08:54:52;;;;;;;14.80;5.88;;;17.90;99.90;;;;;;4161518;28;20053;-88
2022/07/01 08:56:53;;;;;;;10.48;4.70;;;17.90;99.90;;;;;;4164443;28;20107;-89
2022/07/01 08:58:54;;;;;;;7.97;4.47;;;17.90;99.90;;;;;;4167137;28;20069;-91
2022/07/01 09:01:15;;;;;;;11.35;4.07;;;17.90;99.90;;;;;;4149273;28;20049;-87
2022/07/01 09:03:21;;;;;;;5.18;3.88;;;18.00;99.90;;;;;;4149492;28;20048;-90
2022/07/01 09:05:23;;;;;;;12.15;3.60;;;18.20;99.90;;;;;;4149210;28;20120;-90
2022/07/01 09:07:33;;;;;;;7.35;3.75;;;18.30;99.90;;;;;;4149158;28;20509;-90
2022/07/01 09:09:36;;;;;;;6.63;3.75;;;18.50;99.90;;;;;;4165736;28;20417;-89
2022/07/01 09:11:43;;;;;;;6.80;3.40;;;18.60;99.90;;;;;;4165995;28;20417;-90
2022/07/01 09:13:45;;;;;;;4.85;3.03;;;18.70;99.90;;;;;;4148196;28;20042;-89
2022/07/01 09:15:45;;;;;;;13.02;4.18;;;18.80;99.90;;;;;;4148312;28;20577;-90
2022/07/01 09:17:46;;;;;;;6.95;3.40;;;19.00;99.90;;;;;;4164049;28;20095;-89
2022/07/01 09:19:50;;;;;;;6.22;2.30;;;19.00;99.90;;;;;;4148845;28;20478;-89
2022/07/01 09:21:56;;;;;;;8.60;2.70;;;19.10;99.90;;;;;;4148525;28;20045;-90
2022/07/01 09:24:01;;;;;;;5.55;2.80;;;19.10;99.00;;;;;;4166777;28;20087;-90
2022/07/01 09:26:02;;;;;;;6.90;2.72;;;19.40;99.30;;;;;;4165700;28;20517;-89
2022/07/01 09:28:19;;;;;;;3.38;2.00;;;19.70;98.80;;;;;;4165349;28;20143;-89
2022/07/01 09:30:27;;;;;;;7.43;2.88;;;19.70;96.60;;;;;;4164960;28;20501;-90
2022/07/01 09:32:27;;;;;;;7.03;2.50;;;19.60;97.50;;;;;;4164718;28;20042;-89
2022/07/01 09:34:44;;;;;;;5.85;3.08;;;19.40;97.60;;;;;;4164286;28;20049;-89
2022/07/01 09:36:57;;;;;;;7.90;2.75;;;19.40;97.60;;;;;;4165093;28;20041;-89
2022/07/01 09:39:03;;;;;;;6.43;3.00;;;19.50;98.00;;;;;;4181850;28;20049;-90
2022/07/01 09:41:07;;;;;;;8.90;3.65;;;19.50;98.10;;;;;;4182246;28;20077;-90
2022/07/01 09:43:13;;;;;;;4.85;2.83;;;19.40;97.60;;;;;;4181968;28;20091;-90
2022/07/01 09:45:14;;;;;;;4.10;2.38;;;19.50;97.60;;;;;;4164942;28;20057;-89
2022/07/01 09:47:14;;;;;;;8.10;2.90;;;19.60;97.40;;;;;;4165013;28;20096;-89
2022/07/01 09:49:15;;;;;;;8.55;2.97;;;19.50;96.80;;;;;;4165121;28;20091;-89
2022/07/01 09:51:16;;;;;;;8.02;2.88;;;19.40;97.10;;;;;;4172162;28;20144;-89
2022/07/01 09:53:18;;;;;;;7.18;2.90;;;19.40;96.80;;;;;;4147951;28;20046;-88
2022/07/01 09:55:19;;;;;;;6.78;2.70;;;19.30;96.60;;;;;;4163852;28;20053;-89
2022/07/01 09:57:21;;;;;;;3.38;2.47;;;19.30;97.10;;;;;;4165207;28;20100;-89
2022/07/01 09:59:22;;;;;;;7.22;2.78;;;19.20;96.80;;;;;;4181175;28;20192;-89
2022/07/01 10:01:24;;;;;;;9.00;3.03;;;19.40;96.40;;;;;;4166638;28;20052;-89
2022/07/01 10:03:26;;;;;;;6.45;1.88;;;19.40;96.40;;;;;;4165312;28;20049;-89
2022/07/01 10:05:29;;;;;;;7.93;2.35;;;19.40;96.30;;;;;;4148332;28;20072;-89
2022/07/01 10:07:39;;;;;;;4.97;1.70;;;19.50;95.90;;;;;;4166230;28;20061;-89
2022/07/01 10:09:52;;;;;;;3.60;1.45;;;19.50;95.50;;;;;;4150483;28;20053;-89
2022/07/01 10:12:27;;;;;;;5.05;2.63;;;19.60;94.80;;;;;;4168222;28;20092;-90
2022/07/01 10:14:30;;;;;;;6.25;1.40;;;20.00;95.10;;;;;;4167684;28;20049;-89
2022/07/01 10:16:32;;;;;;;5.03;2.03;;;20.20;94.70;;;;;;4168733;28;20041;-89
2022/07/01 10:18:34;;;;;;;7.07;1.83;;;20.40;94.50;;;;;;4150239;28;20487;-88
2022/07/01 10:20:37;;;;;;;5.55;2.25;;;20.60;92.90;;;;;;4167211;28;20041;-89
2022/07/01 10:22:39;;;;;;;6.07;2.30;;;20.50;93.40;;;;;;4151593;28;20501;-89
2022/07/01 10:24:40;;;;;;;4.78;2.50;;;20.40;93.30;;;;;;4175182;28;20041;-89
2022/07/01 10:26:41;;;;;;;5.88;2.45;;;20.20;93.80;;;;;;4183506;28;20067;-89
2022/07/01 10:28:43;;;;;;;7.18;2.45;;;20.10;94.20;;;;;;4184899;28;20070;-89
2022/07/01 10:31:05;;;;;;;6.97;2.75;;;20.30;94.50;;;;;;4167858;28;20060;-90
2022/07/01 10:33:06;;;;;;;4.03;1.85;;;20.40;92.70;;;;;;4190937;28;20041;-89
2022/07/01 10:35:07;;;;;;;6.18;1.70;;;20.50;93.60;;;;;;4192120;28;20106;-88
2022/07/01 10:37:11;;;;;;;5.03;1.63;;;20.50;93.40;;;;;;4183931;28;20041;-90
2022/07/01 10:39:16;;;;;;;5.05;1.50;;;20.60;93.30;;;;;;4168071;28;20115;-89
2022/07/01 10:41:24;;;;;;;5.22;1.65;;;20.90;93.30;;;;;;4184335;28;20045;-89
2022/07/01 10:43:35;;;;;;;6.47;1.73;;;21.00;92.00;;;;;;4167650;28;20084;-89
2022/07/01 10:45:45;;;;;;;3.35;1.45;;;21.00;91.00;;;;;;4183104;28;20053;-89
2022/07/01 10:47:47;;;;;;;8.20;1.83;;;21.10;91.50;;;;;;4165612;28;20057;-89
2022/07/01 10:50:03;;;;;;;3.25;1.90;;;21.10;91.70;;;;;;4184140;28;20135;-88
2022/07/01 10:52:09;;;;;;;8.13;2.28;;;21.00;91.50;;;;;;4183096;28;20543;-89
2022/07/01 10:54:11;;;;;;;5.95;1.90;;;21.00;91.90;;;;;;4183846;28;20080;-89
2022/07/01 10:56:17;;;;;;;4.03;1.73;;;20.90;91.70;;;;;;4182243;28;20496;-89
2022/07/01 10:58:18;;;;;;;4.45;1.92;;;20.80;91.80;;;;;;4184503;28;20068;-89
2022/07/01 11:00:19;;;;;;;3.42;1.98;;;20.70;91.30;;;;;;4182000;28;20413;-89
2022/07/01 11:02:28;;;;;;;9.00;3.22;;;20.70;91.60;;;;;;4178363;28;20053;-89
2022/07/01 11:04:36;;;;;;;;;;;20.80;91.80;;;;;;4167534;28;20049;-89
2022/07/01 11:06:39;;;;;;;4.63;2.53;;;21.00;91.30;;;;;;4148587;28;19926;-89
2022/07/01 11:08:39;;;;;;;7.75;1.88;;;20.90;91.50;;;;;;4174692;28;20049;-89